Time;durP1;ratioP1;P1;durP2;ratioP2;P2;SDS_P1;SDS_P2;PMS_P1;PMS_P2;Temp;Humidity;BMP_temperature;BMP_pressure;BME280_temperature;BME280_humidity;BME280_pressure;Samples;Min_cycle;Max_cycle;Signal;HPM_P1;HPM_P2
2023/03/17 00:00:21;;;;;;;8.35;5.05;;;4.90;99.90;;;;;;6194514;23;20361;-84
2023/03/17 00:02:48;;;;;;;9.55;5.57;;;4.80;99.90;;;;;;6169275;23;20373;-83
2023/03/17 00:05:23;;;;;;;8.02;5.35;;;4.80;99.90;;;;;;6182906;23;20421;-84
2023/03/17 00:07:50;;;;;;;8.88;5.68;;;4.80;99.90;;;;;;6211507;23;20669;-85
2023/03/17 00:10:21;;;;;;;10.32;5.20;;;4.80;99.90;;;;;;6212900;23;20338;-84
2023/03/17 00:12:48;;;;;;;8.65;5.18;;;4.90;99.90;;;;;;6212450;23;20346;-83
2023/03/17 00:15:14;;;;;;;8.80;5.25;;;4.80;99.90;;;;;;6213447;23;20338;-84
2023/03/17 00:17:41;;;;;;;10.40;5.65;;;4.70;99.90;;;;;;6185797;23;20405;-84
2023/03/17 00:20:13;;;;;;;8.20;5.72;;;4.70;99.90;;;;;;6186335;23;20350;-84
2023/03/17 00:22:39;;;;;;;8.43;5.38;;;4.80;99.90;;;;;;6212435;23;20482;-84
2023/03/17 00:25:27;;;;;;;7.28;4.97;;;4.80;99.90;;;;;;6186276;23;20407;-84
2023/03/17 00:27:55;;;;;;;8.43;5.70;;;4.90;99.90;;;;;;6209803;23;20349;-84
2023/03/17 00:30:22;;;;;;;10.35;4.95;;;4.70;99.90;;;;;;6209310;23;20338;-84
2023/03/17 00:32:50;;;;;;;8.75;5.63;;;4.80;99.90;;;;;;6213358;23;20342;-84
2023/03/17 00:35:25;;;;;;;8.00;5.50;;;4.80;99.90;;;;;;6213755;23;20412;-83
2023/03/17 00:37:59;;;;;;;7.38;5.32;;;4.80;99.90;;;;;;6185846;23;20728;-84
2023/03/17 00:40:29;;;;;;;8.65;5.45;;;4.80;99.90;;;;;;6185889;23;20346;-84
2023/03/17 00:42:56;;;;;;;9.43;5.07;;;4.80;99.90;;;;;;6212091;23;20358;-84
2023/03/17 00:45:24;;;;;;;9.55;5.47;;;4.70;99.90;;;;;;6212752;23;20331;-84
2023/03/17 00:50:25;;;;;;;7.43;4.97;;;4.70;99.90;;;;;;6213740;22;20434;-82
2023/03/17 00:52:54;;;;;;;8.85;5.25;;;4.80;99.90;;;;;;6241304;23;20344;-82
2023/03/17 00:55:21;;;;;;;8.95;5.03;;;4.70;99.90;;;;;;6189435;23;20364;-82
2023/03/17 00:57:48;;;;;;;9.50;5.23;;;4.80;99.90;;;;;;6213823;23;20482;-81
2023/03/17 01:00:19;;;;;;;8.13;4.88;;;4.70;99.90;;;;;;6239794;23;20367;-82
2023/03/17 01:02:48;;;;;;;7.53;5.32;;;4.80;99.90;;;;;;6214334;23;22234;-82
2023/03/17 01:05:15;;;;;;;8.02;5.30;;;4.90;99.90;;;;;;6212323;23;21090;-82
2023/03/17 01:07:46;;;;;;;8.23;5.35;;;4.80;99.90;;;;;;6212567;23;20670;-82
2023/03/17 01:10:22;;;;;;;7.82;5.38;;;4.80;99.90;;;;;;6241373;23;20345;-83
2023/03/17 01:12:49;;;;;;;8.23;5.10;;;4.80;99.90;;;;;;6241329;23;20799;-82
2023/03/17 01:15:18;;;;;;;8.50;4.88;;;4.80;99.90;;;;;;6213640;23;20679;-82
2023/03/17 01:17:44;;;;;;;9.40;5.75;;;4.80;99.90;;;;;;6206281;23;20819;-82
2023/03/17 01:20:22;;;;;;;9.70;5.50;;;4.70;99.90;;;;;;6240744;23;20347;-82
2023/03/17 01:22:49;;;;;;;8.13;5.43;;;4.90;99.90;;;;;;6209727;23;20939;-82
2023/03/17 01:25:17;;;;;;;8.48;4.90;;;4.80;99.90;;;;;;6235577;23;20348;-83
2023/03/17 01:27:43;;;;;;;8.02;5.43;;;4.90;99.90;;;;;;6240628;23;20344;-83
2023/03/17 01:30:19;;;;;;;7.97;5.32;;;4.80;99.90;;;;;;6241066;23;20336;-83
2023/03/17 01:32:45;;;;;;;10.35;5.65;;;4.80;99.90;;;;;;6240597;23;20345;-82
2023/03/17 01:35:12;;;;;;;9.05;5.13;;;4.70;99.90;;;;;;6241024;23;20362;-82
2023/03/17 01:37:38;;;;;;;8.82;5.78;;;4.70;99.90;;;;;;6240192;23;20358;-82
2023/03/17 01:40:06;;;;;;;7.63;5.25;;;4.80;99.90;;;;;;6241592;23;20340;-82
2023/03/17 01:42:32;;;;;;;9.52;5.22;;;4.80;99.90;;;;;;6213925;23;20373;-82
2023/03/17 01:45:07;;;;;;;8.90;4.97;;;4.70;99.90;;;;;;6241990;23;20801;-82
2023/03/17 01:47:33;;;;;;;8.82;5.15;;;4.70;99.90;;;;;;6240013;23;20435;-83
2023/03/17 01:50:05;;;;;;;8.43;5.70;;;4.70;99.90;;;;;;6241634;23;21144;-82
2023/03/17 01:52:34;;;;;;;8.83;5.40;;;4.70;99.90;;;;;;6214578;23;20447;-82
2023/03/17 01:55:05;;;;;;;9.73;5.30;;;4.80;99.90;;;;;;6241011;23;20427;-83
2023/03/17 01:57:43;;;;;;;7.90;5.28;;;4.80;99.90;;;;;;6240167;23;20340;-83
2023/03/17 02:00:16;;;;;;;6.65;5.20;;;4.80;99.90;;;;;;6242045;23;20383;-83
2023/03/17 02:02:49;;;;;;;7.90;5.20;;;4.70;99.90;;;;;;6244684;23;20430;-82
2023/03/17 02:05:19;;;;;;;7.90;5.47;;;4.80;99.90;;;;;;6241051;23;20423;-82
2023/03/17 02:07:45;;;;;;;8.10;5.45;;;4.70;99.90;;;;;;6240862;23;20363;-82
2023/03/17 02:10:14;;;;;;;7.85;5.40;;;4.80;99.90;;;;;;6241687;23;20799;-82
2023/03/17 02:12:43;;;;;;;9.13;5.22;;;4.80;99.90;;;;;;6241213;23;20340;-82
2023/03/17 02:15:10;;;;;;;12.13;5.72;;;4.70;99.90;;;;;;6241395;23;20375;-83
2023/03/17 02:17:36;;;;;;;9.32;5.93;;;4.70;99.90;;;;;;6240539;23;20394;-83
2023/03/17 02:20:17;;;;;;;7.90;5.32;;;4.70;99.90;;;;;;6241272;23;20340;-83
2023/03/17 02:22:54;;;;;;;9.45;5.57;;;4.70;99.90;;;;;;6240060;23;20370;-84
2023/03/17 02:25:22;;;;;;;11.02;5.85;;;4.70;99.90;;;;;;6213073;23;20360;-83
2023/03/17 02:27:55;;;;;;;8.43;5.53;;;4.60;99.90;;;;;;6242007;23;20406;-82
2023/03/17 02:30:23;;;;;;;7.82;5.35;;;4.70;99.90;;;;;;6242683;23;20344;-82
2023/03/17 02:32:49;;;;;;;8.68;5.57;;;4.50;99.90;;;;;;6244690;23;20344;-83
2023/03/17 02:35:15;;;;;;;8.02;5.95;;;4.70;99.90;;;;;;6244735;23;20364;-83
2023/03/17 02:37:42;;;;;;;8.37;5.77;;;4.60;99.90;;;;;;6265642;22;20340;-83
2023/03/17 02:40:10;;;;;;;8.13;5.85;;;4.70;99.90;;;;;;6266931;22;20344;-83
2023/03/17 02:42:38;;;;;;;9.25;6.13;;;4.80;99.90;;;;;;6247149;23;20368;-84
2023/03/17 02:45:08;;;;;;;10.17;5.93;;;4.70;99.90;;;;;;6241385;23;20364;-83
2023/03/17 02:47:35;;;;;;;10.03;5.60;;;4.70;99.90;;;;;;6242234;23;20380;-83
2023/03/17 02:50:01;;;;;;;10.02;5.97;;;4.70;99.90;;;;;;6242093;23;20668;-83
2023/03/17 02:52:27;;;;;;;8.45;5.90;;;4.80;99.90;;;;;;6242281;23;20344;-83
2023/03/17 02:54:52;;;;;;;8.60;6.15;;;4.80;99.90;;;;;;6214962;23;20815;-83
2023/03/17 02:57:18;;;;;;;8.70;5.85;;;4.70;99.90;;;;;;6241751;23;20589;-83
2023/03/17 02:59:45;;;;;;;13.18;6.10;;;4.80;99.90;;;;;;6241992;23;20455;-82
2023/03/17 03:02:10;;;;;;;8.10;5.90;;;4.80;99.90;;;;;;6215040;23;20431;-82
2023/03/17 03:04:36;;;;;;;8.83;5.90;;;4.90;99.90;;;;;;6242430;23;20774;-82
2023/03/17 03:07:02;;;;;;;9.15;5.43;;;4.80;99.90;;;;;;6241848;23;20710;-82
2023/03/17 03:09:28;;;;;;;7.53;5.45;;;4.80;99.90;;;;;;6242138;23;20829;-82
2023/03/17 03:11:55;;;;;;;9.82;5.80;;;4.70;99.90;;;;;;6242109;23;21139;-83
2023/03/17 03:14:21;;;;;;;11.40;5.93;;;4.80;99.90;;;;;;6241715;23;20376;-82
2023/03/17 03:16:47;;;;;;;11.30;6.45;;;4.70;99.90;;;;;;6214653;23;20379;-82
2023/03/17 03:19:13;;;;;;;8.73;5.87;;;4.80;99.90;;;;;;6241653;23;20424;-82
2023/03/17 03:21:39;;;;;;;8.90;5.70;;;4.70;99.90;;;;;;6214810;23;20653;-83
2023/03/17 03:24:05;;;;;;;10.25;6.28;;;4.80;99.90;;;;;;6241136;23;20371;-83
2023/03/17 03:26:31;;;;;;;8.35;6.18;;;4.80;99.90;;;;;;6214532;23;20419;-83
2023/03/17 03:28:58;;;;;;;9.13;5.93;;;4.80;99.90;;;;;;6215372;23;20661;-83
2023/03/17 03:31:24;;;;;;;8.07;5.70;;;4.70;99.90;;;;;;6242046;23;20372;-82
2023/03/17 03:33:50;;;;;;;9.10;6.32;;;4.70;99.90;;;;;;6241762;23;20344;-82
2023/03/17 03:36:17;;;;;;;9.40;5.90;;;4.70;99.90;;;;;;6215012;23;20403;-82
2023/03/17 03:38:43;;;;;;;9.60;6.53;;;4.70;99.90;;;;;;6241824;23;20345;-83
2023/03/17 03:41:08;;;;;;;9.63;6.35;;;4.70;99.90;;;;;;6241313;23;20387;-83
2023/03/17 03:43:35;;;;;;;9.18;5.95;;;4.60;99.90;;;;;;6241739;23;20372;-82
2023/03/17 03:46:01;;;;;;;9.18;6.75;;;4.70;99.90;;;;;;6240842;23;20348;-82
2023/03/17 03:48:26;;;;;;;9.50;6.20;;;4.70;99.90;;;;;;6240459;23;20426;-83
2023/03/17 03:50:57;;;;;;;7.72;5.70;;;4.70;99.90;;;;;;6239552;23;20679;-83
2023/03/17 03:53:23;;;;;;;11.20;6.35;;;4.70;99.90;;;;;;6241648;23;20340;-82
2023/03/17 03:55:48;;;;;;;9.07;5.67;;;4.80;99.90;;;;;;6241326;23;20349;-84
2023/03/17 03:58:14;;;;;;;9.87;6.73;;;4.70;99.90;;;;;;6241530;23;20336;-83
2023/03/17 04:00:40;;;;;;;12.17;6.40;;;4.60;99.90;;;;;;6214961;23;20344;-82
2023/03/17 04:03:06;;;;;;;10.07;6.50;;;4.60;99.90;;;;;;6215079;23;20440;-81
2023/03/17 04:05:32;;;;;;;10.07;6.43;;;4.50;99.90;;;;;;6241746;23;20418;-83
2023/03/17 04:08:00;;;;;;;9.80;6.27;;;4.50;99.90;;;;;;6240499;23;20404;-83
2023/03/17 04:10:26;;;;;;;10.45;6.97;;;4.40;99.90;;;;;;6235345;23;20368;-83
2023/03/17 04:12:52;;;;;;;8.35;6.10;;;4.40;99.90;;;;;;6241923;23;20360;-83
2023/03/17 04:15:20;;;;;;;10.77;6.50;;;4.40;99.90;;;;;;6242125;23;20457;-82
2023/03/17 04:17:46;;;;;;;9.18;6.55;;;4.40;99.90;;;;;;6240913;23;20344;-83
2023/03/17 04:20:14;;;;;;;10.43;6.63;;;4.40;99.90;;;;;;6215374;23;20446;-82
2023/03/17 04:22:40;;;;;;;9.65;6.63;;;4.50;99.90;;;;;;6240763;23;20364;-82
2023/03/17 04:25:07;;;;;;;10.68;6.95;;;4.50;99.90;;;;;;6242048;23;20344;-82
2023/03/17 04:27:33;;;;;;;9.33;6.73;;;4.40;99.90;;;;;;6240326;23;20435;-82
2023/03/17 04:30:00;;;;;;;9.52;6.63;;;4.50;99.90;;;;;;6214586;23;20356;-81
2023/03/17 04:32:26;;;;;;;10.52;6.68;;;4.50;99.90;;;;;;6202628;23;20360;-83
2023/03/17 04:34:52;;;;;;;10.68;6.72;;;4.50;99.90;;;;;;6195888;23;20425;-82
2023/03/17 04:37:17;;;;;;;9.43;6.60;;;4.50;99.90;;;;;;6223679;23;20688;-83
2023/03/17 04:39:43;;;;;;;9.20;6.87;;;4.50;99.90;;;;;;6200730;23;20344;-81
2023/03/17 04:42:09;;;;;;;9.93;6.60;;;4.40;99.90;;;;;;6223567;23;20332;-81
2023/03/17 04:44:35;;;;;;;9.80;6.88;;;4.40;99.90;;;;;;6196205;23;20464;-83
2023/03/17 04:47:01;;;;;;;10.00;6.50;;;4.40;99.90;;;;;;6195301;23;20914;-82
2023/03/17 04:49:27;;;;;;;10.48;6.47;;;4.30;99.90;;;;;;6195406;23;20430;-82
2023/03/17 04:51:54;;;;;;;10.48;6.85;;;4.30;99.90;;;;;;6223160;23;20900;-83
2023/03/17 04:54:20;;;;;;;9.23;6.72;;;4.40;99.90;;;;;;6222962;23;20352;-82
2023/03/17 04:56:46;;;;;;;10.73;6.32;;;4.40;99.90;;;;;;6222345;23;20341;-84
2023/03/17 04:59:12;;;;;;;9.80;6.82;;;4.50;99.90;;;;;;6196782;23;20362;-83
2023/03/17 05:01:37;;;;;;;8.93;6.70;;;4.50;99.90;;;;;;6195745;23;20657;-82
2023/03/17 05:04:04;;;;;;;8.70;7.10;;;4.50;99.90;;;;;;6237251;23;20380;-82
2023/03/17 05:06:30;;;;;;;9.68;6.90;;;4.50;99.90;;;;;;6239882;23;20706;-82
2023/03/17 05:08:56;;;;;;;11.55;6.90;;;4.50;99.90;;;;;;6242153;23;20628;-84
2023/03/17 05:11:21;;;;;;;9.50;7.20;;;4.50;99.90;;;;;;6242387;23;20428;-82
2023/03/17 05:13:47;;;;;;;9.98;6.43;;;4.50;99.90;;;;;;6243401;23;20371;-81
2023/03/17 05:16:13;;;;;;;8.35;6.35;;;4.60;99.90;;;;;;6242154;23;20372;-81
2023/03/17 05:18:39;;;;;;;9.85;6.65;;;4.60;99.90;;;;;;6232625;22;20361;-82
2023/03/17 05:21:06;;;;;;;10.07;6.85;;;4.60;99.90;;;;;;6264409;22;20328;-82
2023/03/17 05:23:33;;;;;;;8.88;6.55;;;4.60;99.90;;;;;;6241128;23;20835;-82
2023/03/17 05:25:59;;;;;;;9.32;6.43;;;4.60;99.90;;;;;;6240098;23;20364;-82
2023/03/17 05:28:25;;;;;;;10.27;6.15;;;4.70;99.90;;;;;;6239466;23;20379;-82
2023/03/17 05:30:51;;;;;;;8.52;6.30;;;4.60;99.90;;;;;;6240083;23;20345;-83
2023/03/17 05:33:17;;;;;;;9.45;6.88;;;4.70;99.90;;;;;;6240660;23;20352;-82
2023/03/17 05:35:43;;;;;;;8.23;6.30;;;4.60;99.90;;;;;;6211955;23;20375;-82
2023/03/17 05:38:11;;;;;;;9.32;6.63;;;4.60;99.90;;;;;;6239626;23;20408;-82
2023/03/17 05:40:37;;;;;;;12.73;7.25;;;4.60;99.90;;;;;;6240886;23;20340;-82
2023/03/17 05:43:05;;;;;;;8.93;6.75;;;4.70;99.90;;;;;;6212920;23;20908;-83
2023/03/17 05:45:32;;;;;;;10.05;6.38;;;4.60;99.90;;;;;;6228555;23;20360;-83
2023/03/17 05:47:58;;;;;;;9.38;6.53;;;4.70;99.90;;;;;;6238731;23;20328;-83
2023/03/17 05:50:24;;;;;;;9.57;6.40;;;4.70;99.90;;;;;;6212956;23;20364;-82
2023/03/17 05:52:51;;;;;;;9.60;6.55;;;4.70;99.90;;;;;;6212200;23;20344;-82
2023/03/17 05:55:25;;;;;;;9.52;6.20;;;4.80;99.90;;;;;;6213508;23;20360;-83
2023/03/17 05:57:51;;;;;;;8.90;6.00;;;4.80;99.90;;;;;;6239859;23;20351;-84
2023/03/17 06:00:25;;;;;;;9.10;5.88;;;4.80;99.90;;;;;;6240090;23;20771;-82
2023/03/17 06:02:51;;;;;;;8.13;6.07;;;4.80;99.90;;;;;;6214232;23;20486;-82
2023/03/17 06:05:17;;;;;;;9.20;5.70;;;4.90;99.90;;;;;;6241684;23;20356;-82
2023/03/17 06:07:43;;;;;;;8.93;5.80;;;4.90;99.90;;;;;;6241271;23;20697;-82
2023/03/17 06:10:10;;;;;;;10.85;6.30;;;4.90;99.90;;;;;;6242586;23;20440;-82
2023/03/17 06:12:36;;;;;;;10.43;6.30;;;5.00;99.90;;;;;;6215587;23;20815;-82
2023/03/17 06:15:04;;;;;;;8.68;6.07;;;5.00;99.90;;;;;;6240385;23;20423;-83
2023/03/17 06:17:30;;;;;;;9.95;6.45;;;4.90;99.90;;;;;;6240780;23;20344;-82
2023/03/17 06:19:55;;;;;;;10.57;5.83;;;4.90;99.90;;;;;;6241192;23;20382;-82
2023/03/17 06:22:21;;;;;;;9.70;6.00;;;5.00;99.90;;;;;;6241428;23;20624;-82
2023/03/17 06:24:47;;;;;;;9.30;5.57;;;4.90;99.90;;;;;;6214830;23;20917;-82
2023/03/17 06:27:13;;;;;;;8.93;5.65;;;5.00;99.90;;;;;;6213315;23;20357;-82
2023/03/17 06:29:39;;;;;;;8.52;5.80;;;4.90;99.90;;;;;;6214585;23;20340;-83
2023/03/17 06:32:05;;;;;;;8.68;5.97;;;5.10;99.90;;;;;;6241841;23;20402;-83
2023/03/17 06:34:31;;;;;;;8.10;5.60;;;5.00;99.90;;;;;;6215305;23;20443;-83
2023/03/17 06:36:57;;;;;;;9.15;6.25;;;5.10;99.90;;;;;;6241222;23;20375;-83
2023/03/17 06:39:23;;;;;;;8.43;5.90;;;5.20;99.90;;;;;;6214675;23;20356;-83
2023/03/17 06:41:49;;;;;;;8.03;5.60;;;5.30;99.90;;;;;;6240899;23;20371;-84
2023/03/17 06:44:15;;;;;;;9.65;5.35;;;5.50;99.90;;;;;;6241780;23;20426;-83
2023/03/17 06:46:41;;;;;;;11.15;6.00;;;5.60;99.90;;;;;;6240525;23;20503;-84
2023/03/17 06:49:07;;;;;;;12.88;6.18;;;5.70;99.90;;;;;;6241588;23;20357;-82
2023/03/17 06:51:35;;;;;;;10.15;5.72;;;5.70;99.90;;;;;;6213974;23;20804;-83
2023/03/17 06:54:01;;;;;;;9.05;5.25;;;5.60;99.90;;;;;;6215032;23;20349;-81
2023/03/17 06:56:26;;;;;;;7.67;5.37;;;5.70;99.90;;;;;;6240997;23;20468;-83
2023/03/17 06:58:52;;;;;;;9.90;5.85;;;5.50;99.90;;;;;;6237991;23;20356;-83
2023/03/17 07:01:18;;;;;;;9.27;5.45;;;5.60;99.90;;;;;;6240619;23;20382;-84
2023/03/17 07:03:44;;;;;;;6.15;5.22;;;5.80;99.90;;;;;;6240540;23;20379;-82
2023/03/17 07:06:11;;;;;;;8.48;5.53;;;5.80;99.90;;;;;;6242604;23;20328;-82
2023/03/17 07:08:37;;;;;;;8.05;5.72;;;5.90;99.90;;;;;;6241877;23;20352;-82
2023/03/17 07:11:03;;;;;;;10.15;5.80;;;6.10;99.90;;;;;;6240697;23;20337;-83
2023/03/17 07:13:34;;;;;;;9.10;5.68;;;6.10;99.90;;;;;;6241088;23;20375;-83
2023/03/17 07:16:08;;;;;;;7.28;5.15;;;6.40;99.90;;;;;;6246472;23;20878;-82
2023/03/17 07:18:33;;;;;;;10.05;5.50;;;6.60;99.90;;;;;;6211421;23;20426;-83
2023/03/17 07:21:03;;;;;;;8.45;5.60;;;6.70;99.90;;;;;;6241704;23;20384;-82
2023/03/17 07:23:29;;;;;;;8.57;5.25;;;6.70;99.90;;;;;;6241186;23;20364;-83
2023/03/17 07:25:56;;;;;;;8.02;4.78;;;6.50;99.90;;;;;;6216502;23;20352;-84
2023/03/17 07:28:22;;;;;;;7.55;4.70;;;6.60;99.90;;;;;;6243280;23;20340;-83
2023/03/17 07:30:48;;;;;;;10.00;5.47;;;6.70;99.90;;;;;;6243761;23;20732;-82
2023/03/17 07:33:16;;;;;;;12.02;4.82;;;6.60;99.90;;;;;;6215066;23;20372;-83
2023/03/17 07:35:46;;;;;;;7.53;4.70;;;6.60;99.90;;;;;;6214605;23;20371;-83
2023/03/17 07:38:12;;;;;;;9.80;6.00;;;6.80;99.90;;;;;;6214352;23;20376;-84
2023/03/17 07:40:37;;;;;;;6.57;4.90;;;6.70;99.90;;;;;;6212643;23;20364;-83
2023/03/17 07:43:05;;;;;;;7.65;4.63;;;7.00;99.90;;;;;;6242689;23;20372;-83
2023/03/17 07:45:31;;;;;;;8.43;5.13;;;7.40;99.90;;;;;;6215068;23;20374;-83
2023/03/17 07:47:58;;;;;;;9.05;5.05;;;7.70;99.90;;;;;;6242706;23;20337;-83
2023/03/17 07:50:24;;;;;;;10.07;5.50;;;8.20;99.90;;;;;;6242488;23;20387;-83
2023/03/17 07:52:50;;;;;;;6.53;5.00;;;8.80;99.90;;;;;;6243569;23;20368;-83
2023/03/17 07:55:16;;;;;;;7.77;5.00;;;8.80;99.90;;;;;;6245845;23;20340;-83
2023/03/17 07:57:42;;;;;;;7.15;4.90;;;8.80;99.90;;;;;;6219791;23;20720;-83
2023/03/17 08:00:09;;;;;;;7.75;4.53;;;8.60;99.90;;;;;;6255923;22;20364;-83
2023/03/17 08:02:36;;;;;;;10.07;5.25;;;8.70;99.90;;;;;;6241170;22;20415;-84
2023/03/17 08:05:03;;;;;;;9.05;5.00;;;8.40;99.90;;;;;;6263678;22;20372;-84
2023/03/17 08:07:30;;;;;;;7.37;4.90;;;8.50;99.90;;;;;;6221164;23;20414;-83
2023/03/17 08:09:56;;;;;;;8.43;4.93;;;8.60;99.90;;;;;;6215894;23;20346;-84
2023/03/17 08:12:24;;;;;;;7.63;4.88;;;8.80;99.90;;;;;;6242486;23;20352;-84
2023/03/17 08:14:50;;;;;;;7.13;4.53;;;9.10;99.90;;;;;;6243029;23;20394;-84
2023/03/17 08:17:16;;;;;;;6.15;4.65;;;9.20;99.90;;;;;;6239801;23;20344;-83
2023/03/17 08:19:42;;;;;;;6.82;4.43;;;9.00;99.90;;;;;;6239687;23;20364;-84
2023/03/17 08:22:08;;;;;;;7.47;4.88;;;9.20;99.90;;;;;;6240913;23;20379;-83
2023/03/17 08:24:38;;;;;;;7.10;4.70;;;9.00;99.90;;;;;;6239784;23;20368;-83
2023/03/17 08:27:04;;;;;;;6.55;4.45;;;8.90;99.90;;;;;;6239435;23;20479;-83
2023/03/17 08:29:30;;;;;;;6.80;4.85;;;8.80;99.90;;;;;;6239422;23;20367;-83
2023/03/17 08:31:56;;;;;;;7.25;4.97;;;8.70;99.90;;;;;;6241188;23;20344;-83
2023/03/17 08:34:23;;;;;;;9.13;4.80;;;8.60;99.90;;;;;;6239066;23;20684;-83
2023/03/17 08:36:50;;;;;;;7.70;4.63;;;8.60;99.90;;;;;;6212915;23;20849;-83
2023/03/17 08:39:16;;;;;;;7.75;4.72;;;8.80;99.90;;;;;;6211657;23;20368;-83
2023/03/17 08:41:42;;;;;;;10.55;4.50;;;9.00;99.90;;;;;;6241267;23;20341;-84
2023/03/17 08:44:08;;;;;;;5.40;4.43;;;8.90;99.90;;;;;;6212736;23;20426;-84
2023/03/17 08:46:34;;;;;;;7.18;4.80;;;8.90;99.90;;;;;;6240403;23;20657;-83
2023/03/17 08:49:00;;;;;;;6.50;4.68;;;9.20;99.90;;;;;;6238007;23;20425;-84
2023/03/17 08:51:30;;;;;;;5.27;4.30;;;9.30;99.90;;;;;;6213819;23;20378;-83
2023/03/17 08:53:56;;;;;;;5.60;4.30;;;9.40;99.50;;;;;;6212790;23;20348;-83
2023/03/17 08:56:22;;;;;;;5.97;4.38;;;9.20;99.90;;;;;;6240970;23;20348;-83
2023/03/17 08:58:49;;;;;;;6.20;4.60;;;9.40;99.90;;;;;;6239344;23;20407;-83
2023/03/17 09:01:16;;;;;;;7.20;4.38;;;9.70;99.40;;;;;;6240570;23;20646;-82
2023/03/17 09:03:42;;;;;;;7.40;4.25;;;10.00;98.90;;;;;;6240593;23;20371;-82
2023/03/17 09:06:11;;;;;;;6.77;4.10;;;10.50;98.70;;;;;;6240479;23;20333;-83
2023/03/17 09:08:39;;;;;;;7.50;4.40;;;10.70;98.50;;;;;;6213892;23;20345;-83
2023/03/17 09:11:09;;;;;;;6.78;4.70;;;11.00;97.90;;;;;;6240928;23;20344;-83
2023/03/17 09:13:37;;;;;;;6.68;4.32;;;11.00;97.80;;;;;;6240930;23;20396;-84
2023/03/17 09:16:06;;;;;;;7.50;4.28;;;10.80;97.90;;;;;;6210752;23;20390;-83
2023/03/17 09:18:32;;;;;;;6.50;4.47;;;10.60;98.60;;;;;;6212617;23;20356;-84
2023/03/17 09:20:58;;;;;;;5.83;3.97;;;10.70;98.30;;;;;;6240225;23;20474;-83
2023/03/17 09:23:24;;;;;;;6.95;3.92;;;10.70;97.70;;;;;;6239861;23;20364;-83
2023/03/17 09:25:51;;;;;;;6.73;3.97;;;10.80;98.00;;;;;;6238507;23;20725;-82
2023/03/17 09:28:17;;;;;;;6.45;3.95;;;10.80;97.50;;;;;;6238963;23;20347;-83
2023/03/17 09:30:44;;;;;;;7.40;4.40;;;11.00;97.50;;;;;;6213469;23;20470;-84
2023/03/17 09:33:13;;;;;;;8.02;3.90;;;11.30;98.00;;;;;;6213239;23;20345;-83
2023/03/17 09:35:39;;;;;;;5.72;3.55;;;11.70;97.60;;;;;;6240147;23;20347;-84
2023/03/17 09:38:06;;;;;;;7.35;3.63;;;12.20;97.70;;;;;;6240824;23;20438;-84
2023/03/17 09:40:38;;;;;;;5.38;4.00;;;12.70;96.90;;;;;;6242565;23;20341;-83
2023/03/17 09:43:14;;;;;;;5.13;3.40;;;12.40;95.60;;;;;;6214418;23;20451;-84
2023/03/17 09:45:40;;;;;;;5.95;3.38;;;12.50;96.40;;;;;;6242486;23;20371;-84
2023/03/17 09:48:48;;;;;;;5.88;3.30;;;13.00;95.40;;;;;;6240359;23;20356;-83
2023/03/17 09:51:18;;;;;;;4.70;3.10;;;13.30;95.00;;;;;;6242366;23;20423;-84
2023/03/17 09:54:03;;;;;;;8.10;3.50;;;13.60;95.00;;;;;;6217782;23;20348;-84
2023/03/17 09:56:31;;;;;;;5.53;3.78;;;14.00;95.00;;;;;;6241720;23;20352;-84
2023/03/17 09:59:02;;;;;;;4.93;3.75;;;13.90;94.80;;;;;;6242521;23;20340;-84
2023/03/17 10:01:29;;;;;;;8.48;3.75;;;14.10;95.30;;;;;;6239992;23;20398;-83
2023/03/17 10:03:55;;;;;;;6.20;3.67;;;13.70;93.90;;;;;;6242179;23;20372;-84
2023/03/17 10:06:29;;;;;;;5.88;3.42;;;13.40;95.40;;;;;;6241384;23;20679;-84
2023/03/17 10:09:14;;;;;;;5.47;3.40;;;13.50;95.40;;;;;;6214629;23;20474;-84
2023/03/17 10:11:42;;;;;;;6.30;3.65;;;14.20;94.20;;;;;;6239528;23;20374;-83
2023/03/17 10:14:22;;;;;;;5.43;3.58;;;14.40;94.10;;;;;;6240293;23;20336;-83
2023/03/17 10:16:58;;;;;;;4.78;3.38;;;14.80;93.90;;;;;;6240358;23;20422;-83
2023/03/17 10:19:39;;;;;;;6.18;3.72;;;15.00;92.80;;;;;;6240910;23;20356;-83
2023/03/17 10:22:27;;;;;;;4.73;3.20;;;14.70;93.80;;;;;;6243007;23;20414;-84
2023/03/17 10:25:00;;;;;;;5.50;3.10;;;14.40;93.00;;;;;;6242640;23;20402;-84
2023/03/17 10:27:26;;;;;;;3.88;3.00;;;14.50;93.40;;;;;;6240962;23;20364;-83
2023/03/17 10:29:52;;;;;;;4.40;2.90;;;14.20;93.10;;;;;;6215522;23;20735;-84
2023/03/17 10:32:18;;;;;;;5.50;3.38;;;14.20;94.10;;;;;;6242586;23;20429;-83
2023/03/17 10:34:45;;;;;;;5.30;3.20;;;14.50;93.10;;;;;;6243239;23;20348;-83
2023/03/17 10:37:16;;;;;;;4.03;2.90;;;14.40;94.30;;;;;;6245922;23;20357;-83
2023/03/17 10:39:51;;;;;;;5.40;3.10;;;14.50;92.70;;;;;;6246140;23;20423;-84
2023/03/17 10:42:26;;;;;;;5.18;3.55;;;14.40;93.10;;;;;;6230633;23;20352;-83
2023/03/17 10:44:57;;;;;;;5.20;3.17;;;14.60;94.60;;;;;;6266744;22;20368;-83
2023/03/17 10:47:32;;;;;;;4.10;2.67;;;14.90;93.60;;;;;;6257409;23;20486;-85
2023/03/17 10:50:16;;;;;;;5.03;2.95;;;14.80;93.10;;;;;;6242167;23;20366;-84
2023/03/17 10:52:43;;;;;;;3.33;2.65;;;15.10;92.90;;;;;;6242344;23;20351;-83
2023/03/17 10:55:14;;;;;;;4.47;2.55;;;15.50;91.40;;;;;;6242491;23;20792;-84
2023/03/17 10:57:49;;;;;;;8.33;2.77;;;15.60;91.70;;;;;;6241378;23;20344;-83
2023/03/17 11:00:18;;;;;;;4.50;3.00;;;15.30;91.90;;;;;;6241500;23;20461;-83
2023/03/17 11:02:57;;;;;;;5.40;3.10;;;15.00;90.90;;;;;;6241510;23;20367;-83
2023/03/17 11:05:27;;;;;;;3.78;2.70;;;14.90;91.20;;;;;;6242018;23;20352;-83
2023/03/17 11:08:10;;;;;;;4.97;2.80;;;14.90;90.80;;;;;;6241289;23;20408;-83
2023/03/17 11:10:38;;;;;;;3.85;2.60;;;14.60;90.90;;;;;;6241247;23;20352;-83
2023/03/17 11:13:04;;;;;;;6.03;2.90;;;14.50;91.40;;;;;;6236381;23;20352;-83
2023/03/17 11:15:36;;;;;;;4.40;2.92;;;14.60;91.60;;;;;;6233416;23;20418;-83
2023/03/17 11:18:13;;;;;;;6.68;3.05;;;14.90;91.20;;;;;;6241125;23;20737;-83
2023/03/17 11:20:48;;;;;;;4.27;2.43;;;15.70;91.20;;;;;;6215095;23;20823;-83
2023/03/17 11:23:31;;;;;;;4.13;2.70;;;15.90;89.70;;;;;;6213719;23;20512;-82
2023/03/17 11:26:06;;;;;;;3.72;2.80;;;16.10;89.70;;;;;;6239582;23;20819;-83
2023/03/17 11:28:39;;;;;;;3.10;2.45;;;15.90;89.60;;;;;;6240323;23;20332;-83
2023/03/17 11:31:23;;;;;;;3.63;2.60;;;15.80;87.70;;;;;;6213760;23;20352;-82
2023/03/17 11:34:16;;;;;;;5.30;3.60;;;15.30;88.00;;;;;;6240735;23;20348;-81
2023/03/17 11:36:57;;;;;;;5.60;2.60;;;15.10;90.30;;;;;;6240203;23;20368;-83
2023/03/17 11:39:35;;;;;;;5.45;2.90;;;15.20;90.20;;;;;;6241474;23;20348;-83
2023/03/17 11:42:12;;;;;;;5.10;2.90;;;15.30;90.00;;;;;;6239630;23;20349;-83
2023/03/17 11:44:57;;;;;;;5.78;2.92;;;15.10;90.70;;;;;;6241686;23;20368;-82
2023/03/17 11:47:54;;;;;;;4.85;3.10;;;15.20;90.50;;;;;;6239848;23;20479;-83
2023/03/17 11:50:32;;;;;;;4.43;2.80;;;15.10;90.50;;;;;;6208546;23;20372;-84
2023/03/17 11:53:10;;;;;;;6.63;3.00;;;14.90;91.90;;;;;;6239161;23;20341;-83
2023/03/17 11:55:44;;;;;;;4.53;3.13;;;14.80;91.20;;;;;;6241330;23;20795;-83
2023/03/17 11:58:35;;;;;;;5.75;3.03;;;14.60;91.40;;;;;;6213719;23;20907;-82
2023/03/17 12:01:08;;;;;;;3.57;2.60;;;14.50;92.50;;;;;;6239556;23;20833;-83
2023/03/17 12:04:15;;;;;;;3.58;3.08;;;14.50;92.30;;;;;;6241351;23;20463;-83
2023/03/17 12:06:56;;;;;;;6.05;3.28;;;14.60;92.60;;;;;;6240334;23;20344;-83
2023/03/17 12:09:31;;;;;;;4.75;3.08;;;14.40;92.20;;;;;;6240565;23;20347;-83
2023/03/17 12:12:01;;;;;;;6.57;3.28;;;14.40;92.20;;;;;;6240697;23;20371;-83
2023/03/17 12:14:45;;;;;;;5.00;3.00;;;14.40;91.90;;;;;;6241236;23;20379;-82
2023/03/17 12:17:24;;;;;;;5.77;3.13;;;14.20;93.30;;;;;;6239368;23;20344;-82
2023/03/17 12:20:08;;;;;;;5.43;2.97;;;14.10;92.20;;;;;;6215271;23;20360;-83
2023/03/17 12:22:53;;;;;;;6.68;3.63;;;14.30;93.40;;;;;;6218050;23;20345;-84
2023/03/17 12:25:58;;;;;;;5.28;3.40;;;14.60;92.90;;;;;;6240388;23;20359;-84
2023/03/17 12:28:27;;;;;;;6.78;3.65;;;14.60;93.30;;;;;;6217862;23;20351;-83
2023/03/17 12:31:06;;;;;;;4.70;3.38;;;14.40;93.70;;;;;;6240659;23;20410;-83
2023/03/17 12:33:44;;;;;;;13.02;3.85;;;14.50;93.60;;;;;;6239741;23;20695;-83
2023/03/17 12:36:14;;;;;;;4.68;3.10;;;14.30;93.80;;;;;;6241168;23;20428;-84
2023/03/17 12:39:24;;;;;;;5.50;3.25;;;14.50;94.20;;;;;;6239784;23;20360;-84
2023/03/17 12:42:08;;;;;;;16.52;4.03;;;14.50;93.70;;;;;;6172053;23;20363;-83
2023/03/17 12:44:59;;;;;;;4.90;3.42;;;14.40;93.40;;;;;;6238989;23;20372;-83
2023/03/17 12:47:44;;;;;;;4.18;3.00;;;14.30;94.00;;;;;;6213723;23;20440;-83
2023/03/17 12:50:18;;;;;;;5.10;3.38;;;14.30;94.20;;;;;;6240994;23;20356;-83
2023/03/17 12:53:28;;;;;;;6.90;3.20;;;14.30;94.20;;;;;;6241597;23;20341;-83
2023/03/17 12:56:16;;;;;;;4.35;3.03;;;14.40;94.30;;;;;;6158921;23;20371;-85
2023/03/17 12:59:13;;;;;;;3.83;2.90;;;14.50;94.10;;;;;;6216173;23;20352;-85
2023/03/17 13:02:16;;;;;;;6.30;3.20;;;14.50;94.50;;;;;;6206183;23;20447;-85
2023/03/17 13:05:06;;;;;;;5.45;3.25;;;14.50;93.90;;;;;;6197423;23;20431;-87
2023/03/17 13:07:46;;;;;;;3.85;3.00;;;14.70;94.20;;;;;;6216535;23;20441;-86
2023/03/17 13:10:17;;;;;;;5.60;3.35;;;14.60;94.10;;;;;;6214990;23;20344;-86